createdAt,value
2022-09-30T00:02:22.501Z,97.20
2022-09-30T00:04:55.805Z,150.80
2022-09-30T00:07:28.651Z,131.40
2022-09-30T00:10:01.543Z,86.60
2022-09-30T00:12:34.518Z,92.00
2022-09-30T00:15:07.747Z,100.00
2022-09-30T00:17:42.956Z,114.40
2022-09-30T00:20:16.469Z,99.20
2022-09-30T00:22:49.543Z,105.80
2022-09-30T00:25:22.613Z,106.80
2022-09-30T00:27:55.111Z,96.00
2022-09-30T00:30:28.704Z,102.40
2022-09-30T00:33:04.613Z,94.00
2022-09-30T00:35:38.988Z,105.20
2022-09-30T00:38:11.600Z,105.80
2022-09-30T00:40:45.227Z,105.00
2022-09-30T00:43:19.068Z,108.00
2022-09-30T00:45:55.416Z,102.80
2022-09-30T00:48:33.126Z,100.60
2022-09-30T00:51:06.929Z,103.20
2022-09-30T00:53:43.667Z,102.60
2022-09-30T00:56:18.568Z,98.00
2022-09-30T00:58:53.161Z,103.80
2022-09-30T01:01:26.895Z,97.40
2022-09-30T01:04:03.776Z,106.80
2022-09-30T01:06:36.375Z,106.40
2022-09-30T01:09:09.395Z,200.00
2022-09-30T01:11:43.485Z,101.80
2022-09-30T01:14:19.153Z,106.60
2022-09-30T01:16:59.860Z,111.60
2022-09-30T01:19:53.620Z,108.20
2022-09-30T01:22:44.006Z,114.00
2022-09-30T01:25:34.371Z,104.20
2022-09-30T01:28:17.207Z,110.60
2022-09-30T01:31:01.281Z,106.20
2022-09-30T01:33:38.133Z,114.60
2022-09-30T01:36:34.136Z,194.60
2022-09-30T01:39:15.475Z,226.00
2022-09-30T01:41:53.930Z,269.50
2022-09-30T01:44:34.697Z,131.50
2022-09-30T01:47:13.012Z,203.75
2022-09-30T01:49:47.981Z,226.40
2022-09-30T01:52:25.650Z,183.50
2022-09-30T01:55:01.119Z,92.80
2022-09-30T01:57:36.918Z,94.00
2022-09-30T02:00:11.427Z,87.40
2022-09-30T02:02:50.175Z,92.40
2022-09-30T02:05:25.076Z,81.20
2022-09-30T02:07:59.918Z,93.60
2022-09-30T02:10:35.850Z,95.20
2022-09-30T02:13:13.418Z,117.00
2022-09-30T02:15:49.002Z,160.80
2022-09-30T02:18:26.217Z,103.60
2022-09-30T02:21:02.126Z,107.40
2022-09-30T02:23:37.433Z,101.20
2022-09-30T02:26:11.937Z,120.80
2022-09-30T02:28:46.998Z,102.80
2022-09-30T02:31:21.858Z,106.20
2022-09-30T02:33:59.745Z,95.00
2022-09-30T02:36:35.209Z,95.20
2022-09-30T02:39:10.150Z,87.80
2022-09-30T02:41:46.231Z,91.20
2022-09-30T02:44:20.465Z,88.80
2022-09-30T02:46:58.013Z,95.60
2022-09-30T02:49:36.846Z,86.80
2022-09-30T02:52:17.673Z,93.00
2022-09-30T02:54:56.097Z,82.00
2022-09-30T02:57:34.576Z,71.80
2022-09-30T03:00:12.513Z,80.75
2022-09-30T03:02:46.800Z,80.50
2022-09-30T03:05:22.052Z,77.75
2022-09-30T03:07:55.423Z,85.50
2022-09-30T03:10:28.729Z,83.25
2022-09-30T03:13:19.335Z,80.25
2022-09-30T03:15:59.733Z,84.00
2022-09-30T03:18:39.235Z,76.50
2022-09-30T03:21:21.437Z,78.25
2022-09-30T03:24:14.610Z,79.50
2022-09-30T03:26:51.836Z,81.50
2022-09-30T03:29:29.170Z,87.75
2022-09-30T03:32:06.406Z,84.50
2022-09-30T03:34:43.346Z,82.75
2022-09-30T03:37:22.256Z,84.00
2022-09-30T03:40:00.096Z,78.50
2022-09-30T03:42:33.864Z,81.50
2022-09-30T03:45:10.383Z,75.75
2022-09-30T03:47:47.251Z,81.75
2022-09-30T03:50:21.951Z,80.00
2022-09-30T03:52:56.462Z,79.00
2022-09-30T03:55:30.025Z,82.00
2022-09-30T03:58:03.165Z,75.75
2022-09-30T04:00:36.294Z,76.00
2022-09-30T04:03:08.872Z,172.00
2022-09-30T04:05:41.593Z,298.33
2022-09-30T04:08:16.117Z,199.75
2022-09-30T04:10:49.549Z,89.50
2022-09-30T04:13:22.208Z,74.20
2022-09-30T04:15:58.562Z,111.60
2022-09-30T04:18:32.999Z,118.80
2022-09-30T04:21:09.056Z,266.40
2022-09-30T04:23:44.588Z,228.00
2022-09-30T04:26:18.545Z,282.80
2022-09-30T04:28:51.248Z,208.40
2022-09-30T04:31:24.230Z,228.80
2022-09-30T04:33:58.594Z,72.20
2022-09-30T04:36:31.460Z,61.00
2022-09-30T04:39:06.790Z,113.40
2022-09-30T04:41:39.895Z,59.80
2022-09-30T04:44:12.564Z,176.40
2022-09-30T04:46:45.593Z,99.00
2022-09-30T04:49:18.106Z,139.00
2022-09-30T04:51:51.251Z,97.40
2022-09-30T04:54:26.148Z,146.40
2022-09-30T04:56:59.186Z,136.40
2022-09-30T04:59:32.215Z,73.60
2022-09-30T05:02:05.350Z,240.80
2022-09-30T05:04:38.060Z,234.20
2022-09-30T05:07:11.833Z,71.20
2022-09-30T05:09:46.892Z,105.20
2022-09-30T05:12:20.127Z,78.40
2022-09-30T05:14:52.688Z,142.20
2022-09-30T05:17:25.256Z,181.40
2022-09-30T05:19:57.858Z,125.25
2022-09-30T05:22:30.447Z,75.00
2022-09-30T05:25:07.631Z,61.50
2022-09-30T05:27:40.626Z,243.40
2022-09-30T05:30:14.214Z,67.60
2022-09-30T05:32:47.612Z,63.60
2022-09-30T05:35:20.401Z,64.75
2022-09-30T05:37:53.337Z,149.20
2022-09-30T05:40:28.196Z,74.00
2022-09-30T05:43:05.533Z,289.40
2022-09-30T05:45:40.109Z,240.80
2022-09-30T05:48:12.820Z,196.60
2022-09-30T05:50:45.917Z,169.00
2022-09-30T05:53:18.778Z,103.60
2022-09-30T05:55:54.400Z,239.75
2022-09-30T05:58:27.701Z,250.40
2022-09-30T06:01:06.924Z,197.40
2022-09-30T06:03:42.370Z,86.00
2022-09-30T06:06:15.082Z,171.25
2022-09-30T06:08:48.880Z,100.60
2022-09-30T06:11:26.205Z,284.00
2022-09-30T06:13:59.367Z,86.20
2022-09-30T06:16:33.617Z,279.00
2022-09-30T06:19:07.901Z,271.67
2022-09-30T06:21:41.638Z,328.75
2022-09-30T06:24:16.355Z,276.50
2022-09-30T06:26:50.791Z,272.00
2022-09-30T06:29:24.248Z,303.50
2022-09-30T06:31:56.992Z,147.25
2022-09-30T06:34:30.661Z,87.25
2022-09-30T06:37:03.624Z,88.60
2022-09-30T06:39:37.006Z,51.00
2022-09-30T06:42:11.894Z,62.00
2022-09-30T06:44:52.670Z,215.80
2022-09-30T06:47:26.161Z,149.40
2022-09-30T06:50:00.696Z,205.60
2022-09-30T06:52:33.385Z,68.75
2022-09-30T06:55:06.538Z,88.60
2022-09-30T06:57:41.866Z,69.60
2022-09-30T07:00:15.761Z,92.40
2022-09-30T07:02:50.275Z,116.80
2022-09-30T07:05:23.421Z,47.50
2022-09-30T07:07:56.216Z,55.00
2022-09-30T07:10:29.187Z,53.25
2022-09-30T07:13:05.121Z,143.80
2022-09-30T07:15:39.571Z,59.75
2022-09-30T07:18:12.893Z,51.25
2022-09-30T07:20:45.712Z,53.00
2022-09-30T07:23:18.240Z,55.00
2022-09-30T07:25:55.410Z,55.00
2022-09-30T07:28:33.570Z,50.25
2022-09-30T07:31:31.461Z,51.75
2022-09-30T07:34:04.188Z,61.00
2022-09-30T07:36:38.686Z,175.40
2022-09-30T07:39:12.669Z,253.80
2022-09-30T07:41:46.847Z,70.00
2022-09-30T07:44:21.835Z,59.80
2022-09-30T07:46:56.322Z,90.20
2022-09-30T07:49:29.198Z,298.00
2022-09-30T07:52:02.670Z,176.80
2022-09-30T07:54:41.317Z,174.20
2022-09-30T07:57:15.577Z,260.00
2022-09-30T07:59:50.240Z,248.50
2022-09-30T08:02:23.715Z,207.40
2022-09-30T08:04:57.073Z,114.20
2022-09-30T08:07:30.332Z,211.80
2022-09-30T08:10:04.135Z,194.50
2022-09-30T08:12:37.481Z,54.00
2022-09-30T08:15:12.651Z,120.80
2022-09-30T08:17:44.190Z,175.00
2022-09-30T08:20:18.842Z,135.60
2022-09-30T08:22:56.276Z,267.00
2022-09-30T08:25:27.885Z,87.75
2022-09-30T08:27:59.066Z,86.50
2022-09-30T08:30:32.288Z,188.25
2022-09-30T08:33:03.619Z,222.00
2022-09-30T08:35:35.451Z,60.80
2022-09-30T08:38:07.588Z,64.00
2022-09-30T08:40:48.006Z,83.00
2022-09-30T08:43:28.040Z,100.60
2022-09-30T08:46:08.961Z,72.00
2022-09-30T08:48:46.207Z,180.20
2022-09-30T08:51:29.152Z,64.50
2022-09-30T08:54:03.930Z,48.40
2022-09-30T08:56:35.857Z,228.20
2022-09-30T08:59:09.821Z,261.50
2022-09-30T09:01:45.765Z,292.20
2022-09-30T09:04:17.913Z,232.25
2022-09-30T09:06:56.434Z,61.60
2022-09-30T09:09:36.679Z,57.80
2022-09-30T09:12:17.763Z,46.00
2022-09-30T09:14:57.439Z,56.50
2022-09-30T09:17:35.344Z,49.00
2022-09-30T09:20:13.986Z,53.00
2022-09-30T09:22:46.101Z,50.00
2022-09-30T09:25:19.623Z,51.00
2022-09-30T09:27:55.519Z,55.25
2022-09-30T09:30:28.025Z,55.00
2022-09-30T09:33:02.036Z,55.00
2022-09-30T09:35:39.919Z,55.00
2022-09-30T09:38:31.523Z,49.50
2022-09-30T09:41:16.122Z,54.00
2022-09-30T09:43:53.566Z,46.75
2022-09-30T09:46:27.853Z,56.50
2022-09-30T09:49:32.306Z,53.75
2022-09-30T09:52:20.287Z,56.00
2022-09-30T09:54:54.709Z,57.25
2022-09-30T09:57:29.320Z,55.50
2022-09-30T10:00:02.255Z,55.50
2022-09-30T10:02:37.577Z,59.00
2022-09-30T10:05:13.220Z,55.00
2022-09-30T10:07:46.643Z,51.50
2022-09-30T10:10:24.106Z,57.00
2022-09-30T10:12:55.968Z,56.25
2022-09-30T10:15:29.228Z,53.00
2022-09-30T10:18:02.346Z,56.50
2022-09-30T10:20:35.301Z,57.75
2022-09-30T10:23:12.646Z,56.00
2022-09-30T10:25:58.386Z,48.00
2022-09-30T10:28:31.517Z,55.75
2022-09-30T10:31:05.514Z,56.25
2022-09-30T10:33:39.636Z,56.00
2022-09-30T10:36:21.124Z,56.75
2022-09-30T10:39:04.194Z,52.25
2022-09-30T10:41:39.114Z,55.00
2022-09-30T10:44:17.991Z,51.00
2022-09-30T10:46:51.049Z,52.00
2022-09-30T10:49:28.574Z,53.50
2022-09-30T10:52:00.213Z,57.00
2022-09-30T10:54:51.485Z,54.00
2022-09-30T10:57:24.424Z,53.50
2022-09-30T10:59:58.345Z,51.50
2022-09-30T11:02:34.119Z,54.75
2022-09-30T11:05:15.036Z,54.00
2022-09-30T11:07:49.974Z,52.75
2022-09-30T11:10:32.591Z,46.00
2022-09-30T11:13:08.144Z,53.25
2022-09-30T11:15:43.825Z,52.50
2022-09-30T11:18:20.272Z,53.25
2022-09-30T11:20:55.716Z,55.25
2022-09-30T11:23:30.905Z,53.75
2022-09-30T11:26:06.379Z,54.00
2022-09-30T11:28:46.193Z,52.50
2022-09-30T11:31:25.477Z,56.50
2022-09-30T11:34:03.189Z,53.75
2022-09-30T11:36:42.838Z,52.50
2022-09-30T11:39:28.602Z,55.50
2022-09-30T11:42:05.468Z,56.00
2022-09-30T11:44:37.734Z,53.75
2022-09-30T11:47:24.439Z,53.50
2022-09-30T11:50:03.852Z,56.25
2022-09-30T11:52:40.030Z,53.50
2022-09-30T11:55:25.078Z,57.50
2022-09-30T11:58:22.299Z,53.50
2022-09-30T12:00:56.312Z,50.75
2022-09-30T12:03:30.899Z,53.25
2022-09-30T12:06:06.310Z,56.00
2022-09-30T12:08:39.748Z,54.25
2022-09-30T12:11:13.199Z,58.00
2022-09-30T12:13:48.027Z,55.50
2022-09-30T12:16:21.483Z,55.75
2022-09-30T12:18:54.980Z,59.00
2022-09-30T12:21:27.826Z,59.50
2022-09-30T12:24:02.860Z,59.50
2022-09-30T12:26:34.395Z,61.00
2022-09-30T12:29:26.984Z,60.00
2022-09-30T12:32:10.851Z,58.50
2022-09-30T12:34:51.132Z,61.00
2022-09-30T12:37:29.693Z,62.50
2022-09-30T12:40:10.805Z,61.25
2022-09-30T12:43:03.121Z,60.25
2022-09-30T12:46:03.973Z,64.50
2022-09-30T12:48:41.024Z,58.75
2022-09-30T12:51:14.217Z,59.75
2022-09-30T12:53:46.029Z,61.50
2022-09-30T12:56:19.477Z,68.75
2022-09-30T12:58:52.927Z,60.25
2022-09-30T13:01:26.853Z,59.50
2022-09-30T13:04:12.604Z,60.00
2022-09-30T13:07:03.411Z,62.75
2022-09-30T13:09:38.022Z,66.00
2022-09-30T13:12:19.877Z,62.33
2022-09-30T13:14:51.253Z,61.75
2022-09-30T13:17:29.567Z,65.75
2022-09-30T13:20:00.693Z,62.00
2022-09-30T13:22:56.241Z,64.25
2022-09-30T13:25:29.279Z,65.00
2022-09-30T13:28:19.020Z,63.50
2022-09-30T13:30:50.394Z,63.75
2022-09-30T13:33:49.574Z,69.25
2022-09-30T13:36:32.562Z,68.50
2022-09-30T13:39:21.856Z,66.25
2022-09-30T13:42:00.921Z,68.25
2022-09-30T13:44:36.619Z,69.50
2022-09-30T13:47:13.715Z,68.50
2022-09-30T13:49:48.363Z,66.25
2022-09-30T13:52:23.775Z,66.50
2022-09-30T13:54:56.397Z,71.00
2022-09-30T13:57:33.880Z,65.75
2022-09-30T14:00:08.732Z,65.50
2022-09-30T14:03:05.418Z,67.50
2022-09-30T14:05:54.084Z,71.75
2022-09-30T14:08:36.250Z,68.00
2022-09-30T14:11:15.257Z,66.75
2022-09-30T14:13:52.667Z,61.75
2022-09-30T14:16:45.620Z,71.00
2022-09-30T14:19:34.187Z,72.00
2022-09-30T14:22:06.922Z,73.25
2022-09-30T14:24:39.637Z,68.75
2022-09-30T14:27:20.940Z,67.00
2022-09-30T14:29:58.419Z,69.50
2022-09-30T14:32:32.218Z,67.75
2022-09-30T14:35:08.190Z,68.75
2022-09-30T14:37:42.732Z,73.25
2022-09-30T14:40:15.832Z,68.75
2022-09-30T14:42:49.419Z,73.75
2022-09-30T14:45:28.439Z,78.75
2022-09-30T14:48:03.153Z,84.60
2022-09-30T14:50:41.482Z,81.25
2022-09-30T14:53:27.064Z,78.50
2022-09-30T14:55:59.151Z,76.25
2022-09-30T14:58:32.082Z,83.25
2022-09-30T15:01:07.503Z,85.25
2022-09-30T15:03:40.936Z,69.50
2022-09-30T15:06:20.697Z,90.80
2022-09-30T15:08:53.229Z,82.60
2022-09-30T15:11:25.646Z,87.80
2022-09-30T15:14:01.061Z,85.25
2022-09-30T15:16:35.301Z,85.80
2022-09-30T15:19:07.691Z,81.00
2022-09-30T15:21:38.843Z,92.40
2022-09-30T15:24:13.990Z,93.00
2022-09-30T15:26:45.916Z,87.20
2022-09-30T15:29:18.115Z,89.80
2022-09-30T15:31:53.777Z,90.60
2022-09-30T15:34:26.227Z,101.60
2022-09-30T15:37:07.799Z,103.80
2022-09-30T15:39:57.554Z,97.20
2022-09-30T15:42:34.708Z,97.80
2022-09-30T15:45:06.237Z,96.40
2022-09-30T15:47:56.723Z,94.00
2022-09-30T15:50:41.251Z,95.00
2022-09-30T15:53:24.887Z,82.00
2022-09-30T15:55:57.039Z,91.20
2022-09-30T15:58:37.327Z,88.40
2022-09-30T16:01:17.382Z,90.20
2022-09-30T16:03:56.030Z,92.20
2022-09-30T16:06:33.909Z,90.60
2022-09-30T16:09:08.129Z,87.20
2022-09-30T16:11:42.729Z,93.80
2022-09-30T16:14:22.538Z,74.40
2022-09-30T16:16:58.038Z,86.80
2022-09-30T16:19:32.013Z,96.00
2022-09-30T16:22:03.660Z,92.20
2022-09-30T16:24:51.540Z,92.20
2022-09-30T16:27:28.994Z,96.80
2022-09-30T16:30:02.172Z,93.80
2022-09-30T16:32:39.115Z,88.00
2022-09-30T16:35:18.822Z,88.40
2022-09-30T16:37:50.312Z,91.20
2022-09-30T16:40:24.592Z,94.80
2022-09-30T16:43:01.383Z,93.20
2022-09-30T16:45:35.089Z,94.40
2022-09-30T16:48:13.288Z,87.40
2022-09-30T16:50:47.898Z,96.00
2022-09-30T16:53:19.722Z,85.80
2022-09-30T16:55:52.158Z,89.40
2022-09-30T16:58:23.380Z,86.00
2022-09-30T17:00:55.676Z,84.40
2022-09-30T17:03:27.429Z,88.20
2022-09-30T17:06:03.338Z,85.00
2022-09-30T17:08:34.508Z,91.20
2022-09-30T17:11:06.288Z,88.80
2022-09-30T17:13:38.539Z,89.40
2022-09-30T17:16:10.478Z,81.00
2022-09-30T17:18:41.809Z,219.80
2022-09-30T17:21:15.040Z,208.40
2022-09-30T17:23:46.744Z,273.00
2022-09-30T17:26:18.400Z,95.80
2022-09-30T17:28:49.501Z,83.20
2022-09-30T17:31:21.310Z,121.20
2022-09-30T17:33:53.314Z,81.00
2022-09-30T17:36:26.719Z,94.80
2022-09-30T17:38:58.726Z,93.80
2022-09-30T17:41:47.081Z,94.20
2022-09-30T17:44:18.761Z,88.00
2022-09-30T17:46:50.218Z,91.40
2022-09-30T17:49:24.101Z,93.40
2022-09-30T17:51:57.573Z,74.40
2022-09-30T17:54:28.827Z,113.80
2022-09-30T17:57:00.470Z,83.00
2022-09-30T17:59:31.987Z,85.20
2022-09-30T18:02:03.480Z,96.00
2022-09-30T18:04:36.961Z,116.00
2022-09-30T18:07:11.589Z,317.25
2022-09-30T18:09:43.542Z,193.40
2022-09-30T18:12:15.106Z,287.00
2022-09-30T18:14:46.576Z,249.75
2022-09-30T18:17:17.831Z,216.40
2022-09-30T18:19:49.941Z,173.40
2022-09-30T18:22:23.203Z,131.50
2022-09-30T18:25:11.149Z,91.80
2022-09-30T18:27:42.849Z,99.40
2022-09-30T18:30:14.729Z,89.40
2022-09-30T18:32:49.791Z,120.20
2022-09-30T18:35:21.802Z,105.60
2022-09-30T18:37:56.327Z,241.00
2022-09-30T18:40:27.822Z,93.20
2022-09-30T18:43:00.705Z,245.20
2022-09-30T18:45:32.691Z,79.80
2022-09-30T18:48:04.854Z,101.60
2022-09-30T18:50:36.222Z,148.50
2022-09-30T18:53:10.336Z,95.00
2022-09-30T18:55:41.750Z,96.60
2022-09-30T18:58:13.138Z,79.80
2022-09-30T19:00:44.860Z,95.80
2022-09-30T19:03:17.987Z,94.80
2022-09-30T19:05:49.503Z,101.40
2022-09-30T19:08:23.106Z,102.00
2022-09-30T19:10:56.133Z,101.00
2022-09-30T19:13:28.900Z,131.50
2022-09-30T19:16:06.162Z,176.75
2022-09-30T19:18:38.648Z,339.25
2022-09-30T19:21:11.503Z,340.25
2022-09-30T19:23:44.975Z,334.50
2022-09-30T19:26:17.304Z,345.50
2022-09-30T19:28:48.875Z,332.60
2022-09-30T19:31:22.176Z,253.00
2022-09-30T19:33:58.079Z,213.60
2022-09-30T19:36:30.900Z,334.40
2022-09-30T19:39:11.933Z,336.40
2022-09-30T19:41:43.439Z,274.20
2022-09-30T19:44:20.670Z,233.20
2022-09-30T19:46:52.358Z,127.60
2022-09-30T19:49:25.150Z,172.40
2022-09-30T19:51:56.667Z,185.40
2022-09-30T19:54:38.852Z,129.50
2022-09-30T19:57:12.483Z,123.00
2022-09-30T19:59:44.374Z,158.00
2022-09-30T20:02:15.954Z,170.25
2022-09-30T20:04:48.496Z,254.00
2022-09-30T20:07:19.529Z,161.40
2022-09-30T20:09:53.851Z,290.40
2022-09-30T20:12:25.072Z,324.40
2022-09-30T20:15:12.705Z,186.60
2022-09-30T20:17:44.177Z,218.75
2022-09-30T20:20:32.409Z,132.25
2022-09-30T20:23:04.475Z,235.20
2022-09-30T20:25:39.494Z,116.40
2022-09-30T20:28:10.786Z,110.80
2022-09-30T20:30:46.992Z,128.60
2022-09-30T20:33:19.763Z,131.25
2022-09-30T20:35:51.326Z,92.00
2022-09-30T20:38:26.290Z,139.80
2022-09-30T20:41:00.582Z,89.80
2022-09-30T20:43:33.061Z,87.60
2022-09-30T20:46:05.642Z,99.60
2022-09-30T20:48:37.776Z,105.80
2022-09-30T20:51:09.508Z,98.60
2022-09-30T20:53:44.477Z,98.60
2022-09-30T20:56:22.991Z,105.20
2022-09-30T20:58:54.637Z,104.20
2022-09-30T21:01:26.427Z,99.20
2022-09-30T21:03:57.916Z,96.00
2022-09-30T21:06:29.921Z,96.80
2022-09-30T21:09:05.294Z,94.80
2022-09-30T21:11:38.269Z,95.20
2022-09-30T21:14:10.636Z,297.00
2022-09-30T21:16:43.935Z,340.80
2022-09-30T21:19:15.281Z,327.60
2022-09-30T21:21:46.465Z,273.25
2022-09-30T21:24:17.793Z,233.75
2022-09-30T21:26:51.689Z,241.40
2022-09-30T21:29:25.309Z,188.40
2022-09-30T21:31:56.948Z,159.80
2022-09-30T21:34:28.247Z,90.20
2022-09-30T21:37:00.219Z,108.20
2022-09-30T21:39:31.455Z,91.60
2022-09-30T21:42:04.362Z,156.50
2022-09-30T21:44:35.476Z,123.50
2022-09-30T21:47:06.718Z,93.60
2022-09-30T21:49:37.845Z,103.40
2022-09-30T21:52:10.611Z,93.20
2022-09-30T21:54:42.350Z,109.00
2022-09-30T21:57:16.849Z,138.25
2022-09-30T21:59:50.478Z,93.80
2022-09-30T22:02:22.086Z,91.20
2022-09-30T22:04:53.813Z,110.00
2022-09-30T22:07:26.607Z,95.80
2022-09-30T22:09:57.713Z,96.00
2022-09-30T22:12:32.541Z,105.40
2022-09-30T22:15:03.775Z,116.60
2022-09-30T22:17:35.376Z,114.60
2022-09-30T22:20:07.108Z,88.60
2022-09-30T22:22:38.715Z,89.80
2022-09-30T22:25:10.481Z,100.60
2022-09-30T22:27:43.686Z,103.80
2022-09-30T22:30:15.341Z,91.60
2022-09-30T22:33:07.363Z,107.00
2022-09-30T22:35:55.667Z,109.00
2022-09-30T22:38:27.716Z,106.00
2022-09-30T22:41:01.089Z,101.60
2022-09-30T22:43:35.686Z,93.00
2022-09-30T22:46:07.053Z,105.60
2022-09-30T22:48:38.887Z,108.80
2022-09-30T22:51:17.391Z,109.00
2022-09-30T22:53:48.892Z,107.20
2022-09-30T22:56:20.098Z,107.60
2022-09-30T22:58:52.992Z,97.80
2022-09-30T23:01:24.240Z,101.80
2022-09-30T23:03:56.919Z,96.20
2022-09-30T23:06:28.415Z,109.60
2022-09-30T23:09:00.105Z,109.00
2022-09-30T23:11:31.821Z,97.40
2022-09-30T23:14:05.745Z,103.00
2022-09-30T23:16:37.694Z,100.80
2022-09-30T23:19:09.163Z,108.40
2022-09-30T23:21:40.576Z,98.80
2022-09-30T23:24:11.748Z,108.00
2022-09-30T23:26:43.881Z,102.00
2022-09-30T23:29:17.534Z,93.60
2022-09-30T23:31:49.720Z,100.00
2022-09-30T23:34:21.018Z,93.00
2022-09-30T23:36:52.731Z,105.40
2022-09-30T23:39:23.927Z,105.00
2022-09-30T23:41:55.356Z,105.00
2022-09-30T23:44:30.101Z,100.00
2022-09-30T23:47:18.460Z,93.20
2022-09-30T23:49:49.892Z,101.80
2022-09-30T23:52:21.092Z,104.80
2022-09-30T23:54:52.117Z,106.00
2022-09-30T23:57:24.133Z,101.60
2022-09-30T23:59:57.006Z,103.40
